createdAt,value
2022-08-12T00:00:11.379Z,15.90
2022-08-12T00:02:58.558Z,15.76
2022-08-12T00:06:01.794Z,15.77
2022-08-12T00:08:54.831Z,15.72
2022-08-12T00:11:42.748Z,15.65
2022-08-12T00:14:30.180Z,15.64
2022-08-12T00:17:17.324Z,15.61
2022-08-12T00:20:04.628Z,15.49
2022-08-12T00:22:58.969Z,15.42
2022-08-12T00:26:21.516Z,15.44
2022-08-12T00:29:03.864Z,15.42
2022-08-12T00:31:50.683Z,15.44
2022-08-12T00:34:37.490Z,15.46
2022-08-12T00:37:24.937Z,15.50
2022-08-12T00:40:12.237Z,15.44
2022-08-12T00:42:42.852Z,15.46
2022-08-12T00:45:12.401Z,15.30
2022-08-12T00:47:42.466Z,15.23
2022-08-12T00:50:18.284Z,15.19
2022-08-12T00:52:49.635Z,15.07
2022-08-12T00:55:20.239Z,15.08
2022-08-12T00:57:52.002Z,15.03
2022-08-12T01:00:23.601Z,15.12
2022-08-12T01:02:58.061Z,15.09
2022-08-12T01:05:45.710Z,15.02
2022-08-12T01:08:32.317Z,15.02
2022-08-12T01:11:19.388Z,15.04
2022-08-12T01:13:50.864Z,15.00
2022-08-12T01:16:22.811Z,14.98
2022-08-12T01:18:53.668Z,14.92
2022-08-12T01:21:46.661Z,14.93
2022-08-12T01:24:45.085Z,14.99
2022-08-12T01:27:16.539Z,14.94
2022-08-12T01:29:48.613Z,14.96
2022-08-12T01:32:19.951Z,15.00
2022-08-12T01:34:58.724Z,15.03
2022-08-12T01:37:30.351Z,15.03
2022-08-12T01:40:33.882Z,15.00
2022-08-12T01:42:56.161Z,14.89
2022-08-12T01:45:27.179Z,14.80
2022-08-12T01:48:12.898Z,14.77
2022-08-12T01:51:00.442Z,14.67
2022-08-12T01:53:50.730Z,14.68
2022-08-12T01:56:25.922Z,14.70
2022-08-12T01:59:16.747Z,14.72
2022-08-12T02:01:47.996Z,14.74
2022-08-12T02:04:43.115Z,14.67
2022-08-12T02:07:41.691Z,14.84
2022-08-12T02:10:50.997Z,14.83
2022-08-12T02:13:50.723Z,14.94
2022-08-12T02:16:33.053Z,14.97
2022-08-12T02:19:22.535Z,14.94
2022-08-12T02:22:04.718Z,14.97
2022-08-12T02:24:35.585Z,15.00
2022-08-12T02:27:06.650Z,14.89
2022-08-12T02:29:37.668Z,14.87
2022-08-12T02:32:08.309Z,14.78
2022-08-12T02:34:38.118Z,14.72
2022-08-12T02:37:10.406Z,14.78
2022-08-12T02:39:41.855Z,14.72
2022-08-12T02:42:12.861Z,14.59
2022-08-12T02:44:49.418Z,14.53
2022-08-12T02:48:00.718Z,14.56
2022-08-12T02:50:15.570Z,14.50
2022-08-12T02:52:45.804Z,14.42
2022-08-12T02:55:34.071Z,14.34
2022-08-12T02:58:11.931Z,14.29
2022-08-12T03:00:44.638Z,14.24
2022-08-12T03:03:15.737Z,14.26
2022-08-12T03:05:55.303Z,14.27
2022-08-12T03:08:32.377Z,14.15
2022-08-12T03:11:12.064Z,14.15
2022-08-12T03:13:47.371Z,14.09
2022-08-12T03:16:19.451Z,14.03
2022-08-12T03:18:49.698Z,13.99
2022-08-12T03:21:55.442Z,13.97
2022-08-12T03:24:09.976Z,14.08
2022-08-12T03:26:39.749Z,14.16
2022-08-12T03:29:09.178Z,14.08
2022-08-12T03:31:39.702Z,14.08
2022-08-12T03:34:12.699Z,14.11
2022-08-12T03:36:43.344Z,14.19
2022-08-12T03:39:36.028Z,14.17
2022-08-12T03:42:28.823Z,14.21
2022-08-12T03:45:29.953Z,14.16
2022-08-12T03:48:25.110Z,14.15
2022-08-12T03:51:13.765Z,14.15
2022-08-12T03:54:01.179Z,14.10
2022-08-12T03:56:48.180Z,14.03
2022-08-12T03:59:34.834Z,13.96
2022-08-12T04:02:04.450Z,13.91
2022-08-12T04:04:36.664Z,13.84
2022-08-12T04:07:07.978Z,13.84
2022-08-12T04:09:39.332Z,13.78
2022-08-12T04:12:27.129Z,13.82
2022-08-12T04:15:03.235Z,13.80
2022-08-12T04:17:33.168Z,13.78
2022-08-12T04:20:03.931Z,13.90
2022-08-12T04:22:33.463Z,13.80
2022-08-12T04:25:03.636Z,13.84
2022-08-12T04:27:33.157Z,13.92
2022-08-12T04:30:17.010Z,13.91
2022-08-12T04:32:54.108Z,13.95
2022-08-12T04:35:25.631Z,13.97
2022-08-12T04:37:59.455Z,14.02
2022-08-12T04:40:31.377Z,14.02
2022-08-12T04:43:02.102Z,13.99
2022-08-12T04:45:31.728Z,14.16
2022-08-12T04:48:01.971Z,14.19
2022-08-12T04:50:36.048Z,14.23
2022-08-12T04:53:08.708Z,14.32
2022-08-12T04:55:39.885Z,14.38
2022-08-12T04:58:09.875Z,14.38
2022-08-12T05:00:39.960Z,14.49
2022-08-12T05:03:09.164Z,14.59
2022-08-12T05:05:41.833Z,14.75
2022-08-12T05:08:15.779Z,14.77
2022-08-12T05:10:45.851Z,14.84
2022-08-12T05:13:17.299Z,14.94
2022-08-12T05:16:03.766Z,14.95
2022-08-12T05:18:39.336Z,15.03
2022-08-12T05:21:11.035Z,15.17
2022-08-12T05:23:41.096Z,15.19
2022-08-12T05:26:10.905Z,15.33
2022-08-12T05:28:40.544Z,15.84
2022-08-12T05:31:09.763Z,15.84
2022-08-12T05:33:40.386Z,15.91
2022-08-12T05:36:13.888Z,16.34
2022-08-12T05:38:59.370Z,16.80
2022-08-12T05:41:30.659Z,17.21
2022-08-12T05:44:04.663Z,17.63
2022-08-12T05:46:35.118Z,17.88
2022-08-12T05:49:05.142Z,18.44
2022-08-12T05:51:40.441Z,18.80
2022-08-12T05:54:12.295Z,18.78
2022-08-12T05:56:41.973Z,19.08
2022-08-12T05:59:12.560Z,18.91
2022-08-12T06:02:11.437Z,19.08
2022-08-12T06:04:33.149Z,19.53
2022-08-12T06:07:59.517Z,19.66
2022-08-12T06:09:57.855Z,19.54
2022-08-12T06:12:27.108Z,19.86
2022-08-12T06:14:56.465Z,19.95
2022-08-12T06:17:25.513Z,20.03
2022-08-12T06:20:25.859Z,20.75
2022-08-12T06:22:47.791Z,20.65
2022-08-12T06:25:21.879Z,20.56
2022-08-12T06:28:07.472Z,20.71
2022-08-12T06:30:39.557Z,20.78
2022-08-12T06:33:56.002Z,20.83
2022-08-12T06:36:00.637Z,21.12
2022-08-12T06:38:32.687Z,21.65
2022-08-12T06:41:19.742Z,21.70
2022-08-12T06:44:05.532Z,21.20
2022-08-12T06:46:38.721Z,21.58
2022-08-12T06:49:12.558Z,21.74
2022-08-12T06:51:42.021Z,21.82
2022-08-12T06:54:31.066Z,21.93
2022-08-12T06:57:57.433Z,21.85
2022-08-12T06:59:50.945Z,22.02
2022-08-12T07:02:22.831Z,22.25
2022-08-12T07:04:52.559Z,22.80
2022-08-12T07:07:24.742Z,22.22
2022-08-12T07:10:04.158Z,22.69
2022-08-12T07:12:37.370Z,22.67
2022-08-12T07:15:07.749Z,23.04
2022-08-12T07:17:37.422Z,22.76
2022-08-12T07:20:29.455Z,23.29
2022-08-12T07:23:00.503Z,23.37
2022-08-12T07:25:37.615Z,22.66
2022-08-12T07:28:16.910Z,23.35
2022-08-12T07:30:49.181Z,24.16
2022-08-12T07:33:20.104Z,23.67
2022-08-12T07:35:50.093Z,23.62
2022-08-12T07:38:29.392Z,23.61
2022-08-12T07:41:06.814Z,24.08
2022-08-12T07:43:39.269Z,24.45
2022-08-12T07:46:11.718Z,24.51
2022-08-12T07:48:43.257Z,24.95
2022-08-12T07:51:25.285Z,24.53
2022-08-12T07:54:00.979Z,24.53
2022-08-12T07:56:34.922Z,24.87
2022-08-12T07:59:04.910Z,24.45
2022-08-12T08:01:34.412Z,24.31
2022-08-12T08:04:21.590Z,24.64
2022-08-12T08:06:51.092Z,24.34
2022-08-12T08:09:23.170Z,25.13
2022-08-12T08:12:18.902Z,24.98
2022-08-12T08:14:51.396Z,25.21
2022-08-12T08:17:20.657Z,25.12
2022-08-12T08:20:04.103Z,25.10
2022-08-12T08:22:42.009Z,24.85
2022-08-12T08:25:20.390Z,25.64
2022-08-12T08:28:04.989Z,25.80
2022-08-12T08:30:34.926Z,25.75
2022-08-12T08:33:05.219Z,25.72
2022-08-12T08:35:54.494Z,25.70
2022-08-12T08:38:31.932Z,26.29
2022-08-12T08:42:15.369Z,26.53
2022-08-12T08:44:11.815Z,26.40
2022-08-12T08:46:42.492Z,26.20
2022-08-12T08:49:12.408Z,26.87
2022-08-12T08:51:42.564Z,26.25
2022-08-12T08:54:12.197Z,26.21
2022-08-12T08:56:44.664Z,26.88
2022-08-12T08:59:15.681Z,25.53
2022-08-12T09:01:45.009Z,25.99
2022-08-12T09:05:08.300Z,26.73
2022-08-12T09:07:17.859Z,26.41
2022-08-12T09:13:02.183Z,27.84
2022-08-12T09:18:30.763Z,28.02
2022-08-12T09:23:58.462Z,28.41
2022-08-12T09:26:45.999Z,28.37
2022-08-12T09:29:16.351Z,27.46
2022-08-12T09:32:03.639Z,27.39
2022-08-12T09:34:37.694Z,27.76
2022-08-12T09:37:19.568Z,27.62
2022-08-12T09:40:05.244Z,27.88
2022-08-12T09:43:15.498Z,28.63
2022-08-12T09:46:19.841Z,28.43
2022-08-12T09:48:44.641Z,28.13
2022-08-12T09:51:25.108Z,28.22
2022-08-12T09:54:33.935Z,28.10
2022-08-12T09:58:07.912Z,28.58
2022-08-12T10:00:16.972Z,28.62
2022-08-12T10:02:57.067Z,29.24
2022-08-12T10:06:26.905Z,29.74
2022-08-12T10:08:23.576Z,30.41
2022-08-12T10:11:18.468Z,29.27
2022-08-12T10:13:52.746Z,28.78
2022-08-12T10:16:23.911Z,29.88
2022-08-12T10:18:55.172Z,29.53
2022-08-12T10:21:35.781Z,28.93
2022-08-12T10:24:08.584Z,30.18
2022-08-12T10:26:57.982Z,30.02
2022-08-12T10:30:02.859Z,29.48
2022-08-12T10:32:45.278Z,28.45
2022-08-12T10:35:17.228Z,28.79
2022-08-12T10:38:37.757Z,29.89
2022-08-12T10:40:58.603Z,30.18
2022-08-12T10:43:55.635Z,29.76
2022-08-12T10:46:31.376Z,30.11
2022-08-12T10:49:06.903Z,28.98
2022-08-12T10:52:32.411Z,29.03
2022-08-12T10:54:43.671Z,30.01
2022-08-12T10:58:13.018Z,29.07
2022-08-12T11:00:34.908Z,31.06
2022-08-12T11:04:23.263Z,30.47
2022-08-12T11:07:08.851Z,30.50
2022-08-12T11:08:42.842Z,30.52
2022-08-12T11:11:17.794Z,29.32
2022-08-12T11:14:09.881Z,30.03
2022-08-12T11:17:43.755Z,29.98
2022-08-12T11:19:46.593Z,29.97
2022-08-12T11:22:17.986Z,31.00
2022-08-12T11:24:51.165Z,31.55
2022-08-12T11:27:22.575Z,31.25
2022-08-12T11:30:06.405Z,31.54
2022-08-12T11:32:39.211Z,31.35
2022-08-12T11:35:11.507Z,31.51
2022-08-12T11:37:59.177Z,32.56
2022-08-12T11:40:29.386Z,31.70
2022-08-12T11:43:00.940Z,32.03
2022-08-12T11:45:53.233Z,31.64
2022-08-12T11:48:26.729Z,30.85
2022-08-12T11:50:56.989Z,29.82
2022-08-12T11:53:58.557Z,31.02
2022-08-12T11:56:15.314Z,30.87
2022-08-12T12:02:02.219Z,32.36
2022-08-12T12:04:29.071Z,32.75
2022-08-12T12:07:07.340Z,32.81
2022-08-12T12:09:52.504Z,31.31
2022-08-12T12:12:25.232Z,32.36
2022-08-12T12:14:58.649Z,31.67
2022-08-12T12:17:38.356Z,32.23
2022-08-12T12:20:10.203Z,30.83
2022-08-12T12:22:45.096Z,32.08
2022-08-12T12:25:14.597Z,31.92
2022-08-12T12:28:03.811Z,30.99
2022-08-12T12:30:36.389Z,31.64
2022-08-12T12:33:07.808Z,31.97
2022-08-12T12:36:17.068Z,31.25
2022-08-12T12:38:28.267Z,30.89
2022-08-12T12:40:57.387Z,29.89
2022-08-12T12:43:37.109Z,31.95
2022-08-12T12:46:13.623Z,32.35
2022-08-12T12:48:44.666Z,33.07
2022-08-12T12:51:49.482Z,32.72
2022-08-12T12:54:10.449Z,31.60
2022-08-12T12:56:42.566Z,30.90
2022-08-12T12:59:33.684Z,31.03
2022-08-12T13:02:06.204Z,32.21
2022-08-12T13:04:38.129Z,31.99
2022-08-12T13:07:07.933Z,31.79
2022-08-12T13:09:37.202Z,32.06
2022-08-12T13:12:10.798Z,31.17
2022-08-12T13:14:40.367Z,32.34
2022-08-12T13:17:14.718Z,32.43
2022-08-12T13:19:46.973Z,32.86
2022-08-12T13:22:20.484Z,33.08
2022-08-12T13:24:57.108Z,32.56
2022-08-12T13:27:34.887Z,31.85
2022-08-12T13:30:10.927Z,33.02
2022-08-12T13:32:57.281Z,31.49
2022-08-12T13:35:33.183Z,31.70
2022-08-12T13:38:04.316Z,31.79
2022-08-12T13:40:34.386Z,31.52
2022-08-12T13:43:06.906Z,31.78
2022-08-12T13:45:37.093Z,32.34
2022-08-12T13:48:08.796Z,31.58
2022-08-12T13:50:39.955Z,31.34
2022-08-12T13:53:23.779Z,32.19
2022-08-12T13:56:01.530Z,31.71
2022-08-12T13:58:32.916Z,33.23
2022-08-12T14:01:06.197Z,32.23
2022-08-12T14:03:51.078Z,32.01
2022-08-12T14:06:26.007Z,31.91
2022-08-12T14:08:59.988Z,32.55
2022-08-12T14:11:51.358Z,32.57
2022-08-12T14:14:31.333Z,32.44
2022-08-12T14:17:09.988Z,33.05
2022-08-12T14:20:01.771Z,32.70
2022-08-12T14:22:31.961Z,32.78
2022-08-12T14:25:02.358Z,30.95
2022-08-12T14:28:04.094Z,31.69
2022-08-12T14:30:28.846Z,31.83
2022-08-12T14:33:02.871Z,31.50
2022-08-12T14:35:41.030Z,32.33
2022-08-12T14:38:26.263Z,31.91
2022-08-12T14:40:58.481Z,32.00
2022-08-12T14:43:31.577Z,31.72
2022-08-12T14:46:16.014Z,32.32
2022-08-12T14:48:47.152Z,31.90
2022-08-12T14:52:42.744Z,31.02
2022-08-12T14:57:00.109Z,31.91
2022-08-12T14:57:19.363Z,32.85
2022-08-12T15:00:20.950Z,32.23
2022-08-12T15:02:49.990Z,31.30
2022-08-12T15:06:03.547Z,32.44
2022-08-12T15:08:12.563Z,31.20
2022-08-12T15:10:54.019Z,32.31
2022-08-12T15:13:25.135Z,32.98
2022-08-12T15:15:56.317Z,31.80
2022-08-12T15:18:26.016Z,31.30
2022-08-12T15:20:58.450Z,32.37
2022-08-12T15:23:45.642Z,31.13
2022-08-12T15:26:34.701Z,31.24
2022-08-12T15:29:06.894Z,31.63
2022-08-12T15:32:00.819Z,32.42
2022-08-12T15:34:30.860Z,32.10
2022-08-12T15:37:00.065Z,31.38
2022-08-12T15:39:30.607Z,31.21
2022-08-12T15:42:04.364Z,31.45
2022-08-12T15:44:41.860Z,31.09
2022-08-12T15:47:12.740Z,31.02
2022-08-12T15:49:54.252Z,30.77
2022-08-12T15:52:30.849Z,30.96
2022-08-12T15:55:06.281Z,30.96
2022-08-12T15:57:53.090Z,30.38
2022-08-12T16:00:32.919Z,31.04
2022-08-12T16:03:05.431Z,30.64
2022-08-12T16:06:16.784Z,30.66
2022-08-12T16:08:27.362Z,30.30
2022-08-12T16:10:58.721Z,29.97
2022-08-12T16:13:34.850Z,30.17
2022-08-12T16:16:22.911Z,30.04
2022-08-12T16:18:58.620Z,30.09
2022-08-12T16:21:50.630Z,29.88
2022-08-12T16:24:19.548Z,30.06
2022-08-12T16:26:51.369Z,29.47
2022-08-12T16:29:38.509Z,30.07
2022-08-12T16:32:23.072Z,30.00
2022-08-12T16:34:55.614Z,30.01
2022-08-12T16:37:32.644Z,30.16
2022-08-12T16:40:15.762Z,29.94
2022-08-12T16:42:53.316Z,29.44
2022-08-12T16:45:32.405Z,29.31
2022-08-12T16:48:33.934Z,29.02
2022-08-12T16:51:04.829Z,29.09
2022-08-12T16:53:43.994Z,28.73
2022-08-12T16:56:17.126Z,28.90
2022-08-12T16:58:48.127Z,28.73
2022-08-12T17:01:19.609Z,28.86
2022-08-12T17:04:08.262Z,28.74
2022-08-12T17:06:43.141Z,28.75
2022-08-12T17:09:17.114Z,27.88
2022-08-12T17:11:49.756Z,28.09
2022-08-12T17:14:23.412Z,27.92
2022-08-12T17:16:55.260Z,27.67
2022-08-12T17:20:30.467Z,27.74
2022-08-12T17:22:16.821Z,27.51
2022-08-12T17:24:55.458Z,27.37
2022-08-12T17:27:26.460Z,27.08
2022-08-12T17:30:04.770Z,26.99
2022-08-12T17:32:37.156Z,27.20
2022-08-12T17:35:30.174Z,27.15
2022-08-12T17:38:11.584Z,27.17
2022-08-12T17:40:46.429Z,27.18
2022-08-12T17:43:55.882Z,27.01
2022-08-12T17:46:13.124Z,26.77
2022-08-12T17:48:55.613Z,26.37
2022-08-12T17:51:26.286Z,26.39
2022-08-12T17:54:10.293Z,26.33
2022-08-12T17:56:43.244Z,26.25
2022-08-12T17:59:13.643Z,25.74
2022-08-12T18:01:58.862Z,25.42
2022-08-12T18:04:36.006Z,25.30
2022-08-12T18:07:08.630Z,25.18
2022-08-12T18:09:40.933Z,25.06
2022-08-12T18:12:34.342Z,24.92
2022-08-12T18:15:08.767Z,24.92
2022-08-12T18:17:43.029Z,24.79
2022-08-12T18:20:18.233Z,24.66
2022-08-12T18:22:55.816Z,24.62
2022-08-12T18:26:16.733Z,24.55
2022-08-12T18:28:42.917Z,24.37
2022-08-12T18:31:14.500Z,24.34
2022-08-12T18:33:46.398Z,24.26
2022-08-12T18:36:22.602Z,24.16
2022-08-12T18:38:55.851Z,24.05
2022-08-12T18:41:30.500Z,24.01
2022-08-12T18:44:09.383Z,23.91
2022-08-12T18:46:54.175Z,23.87
2022-08-12T18:49:33.330Z,23.79
2022-08-12T18:52:05.624Z,23.73
2022-08-12T18:54:52.198Z,23.64
2022-08-12T18:58:05.867Z,23.53
2022-08-12T19:00:21.479Z,23.43
2022-08-12T19:02:53.039Z,23.37
2022-08-12T19:05:54.020Z,23.27
2022-08-12T19:08:15.566Z,23.15
2022-08-12T19:10:49.977Z,23.10
2022-08-12T19:13:54.169Z,22.96
2022-08-12T19:16:23.686Z,22.87
2022-08-12T19:18:55.058Z,22.81
2022-08-12T19:21:25.561Z,22.75
2022-08-12T19:24:09.070Z,22.63
2022-08-12T19:26:42.385Z,22.50
2022-08-12T19:29:13.865Z,22.43
2022-08-12T19:31:58.896Z,22.35
2022-08-12T19:35:18.521Z,22.30
2022-08-12T19:37:27.073Z,22.19
2022-08-12T19:40:10.122Z,22.21
2022-08-12T19:42:53.801Z,22.18
2022-08-12T19:45:42.295Z,22.11
2022-08-12T19:48:18.500Z,21.89
2022-08-12T19:50:52.483Z,21.90
2022-08-12T19:53:24.810Z,21.83
2022-08-12T19:55:58.537Z,21.77
2022-08-12T19:58:28.659Z,21.67
2022-08-12T20:00:58.157Z,21.49
2022-08-12T20:03:39.030Z,21.43
2022-08-12T20:06:13.876Z,21.26
2022-08-12T20:08:48.938Z,21.14
2022-08-12T20:12:15.308Z,21.05
2022-08-12T20:14:18.947Z,20.99
2022-08-12T20:16:54.374Z,20.93
2022-08-12T20:19:53.047Z,20.91
2022-08-12T20:22:23.897Z,20.90
2022-08-12T20:24:56.875Z,20.91
2022-08-12T20:28:05.290Z,20.82
2022-08-12T20:30:20.130Z,20.75
2022-08-12T20:32:54.931Z,20.66
2022-08-12T20:35:38.862Z,20.62
2022-08-12T20:38:27.179Z,20.51
2022-08-12T20:40:58.521Z,20.51
2022-08-12T20:43:32.099Z,20.36
2022-08-12T20:46:01.460Z,20.26
2022-08-12T20:48:30.745Z,20.15
2022-08-12T20:51:03.952Z,20.05
2022-08-12T20:53:57.997Z,19.97
2022-08-12T20:56:33.432Z,19.94
2022-08-12T20:59:09.633Z,19.89
2022-08-12T21:01:47.631Z,19.80
2022-08-12T21:04:37.032Z,19.74
2022-08-12T21:07:09.423Z,19.65
2022-08-12T21:09:44.384Z,19.58
2022-08-12T21:12:31.620Z,19.56
2022-08-12T21:15:23.407Z,19.48
2022-08-12T21:18:10.914Z,19.43
2022-08-12T21:20:54.836Z,19.36
2022-08-12T21:23:25.684Z,19.26
2022-08-12T21:26:01.233Z,19.18
2022-08-12T21:28:33.066Z,19.19
2022-08-12T21:32:34.866Z,19.13
2022-08-12T21:34:08.031Z,19.14
2022-08-12T21:36:48.526Z,19.13
2022-08-12T21:39:22.021Z,19.08
2022-08-12T21:41:55.441Z,19.04
2022-08-12T21:45:44.512Z,19.03
2022-08-12T21:47:20.871Z,19.02
2022-08-12T21:50:03.830Z,18.96
2022-08-12T21:52:37.453Z,18.87
2022-08-12T21:55:17.891Z,18.90
2022-08-12T21:57:54.884Z,18.91
2022-08-12T22:00:36.896Z,18.90
2022-08-12T22:04:04.305Z,18.81
2022-08-12T22:06:30.454Z,18.77
2022-08-12T22:09:16.437Z,18.84
2022-08-12T22:11:56.087Z,18.79
2022-08-12T22:14:28.302Z,18.79
2022-08-12T22:17:01.710Z,18.66
2022-08-12T22:19:35.266Z,18.57
2022-08-12T22:22:05.920Z,18.58
2022-08-12T22:24:35.615Z,18.48
2022-08-12T22:27:31.427Z,18.51
2022-08-12T22:30:16.696Z,18.38
2022-08-12T22:32:50.134Z,18.45
2022-08-12T22:35:56.181Z,18.47
2022-08-12T22:38:25.087Z,18.32
2022-08-12T22:40:58.404Z,18.25
2022-08-12T22:44:00.035Z,18.22
2022-08-12T22:46:53.650Z,18.10
2022-08-12T22:49:26.074Z,17.90
2022-08-12T22:52:18.614Z,17.81
2022-08-12T22:55:02.643Z,17.85
2022-08-12T22:57:49.298Z,17.77
2022-08-12T23:00:27.742Z,17.65
2022-08-12T23:03:02.793Z,17.64
2022-08-12T23:06:09.492Z,17.71
2022-08-12T23:08:31.852Z,17.73
2022-08-12T23:11:06.131Z,17.63
2022-08-12T23:13:49.032Z,17.65
2022-08-12T23:16:28.986Z,17.65
2022-08-12T23:19:10.839Z,17.60
2022-08-12T23:22:06.224Z,17.58
2022-08-12T23:24:55.625Z,17.48
2022-08-12T23:27:51.659Z,17.47
2022-08-12T23:30:32.256Z,17.41
2022-08-12T23:33:20.195Z,17.39
2022-08-12T23:36:02.755Z,17.31
2022-08-12T23:38:35.411Z,17.36
2022-08-12T23:41:12.033Z,17.35
2022-08-12T23:43:48.773Z,17.37
2022-08-12T23:46:22.292Z,17.37
2022-08-12T23:48:56.710Z,17.35
2022-08-12T23:51:26.812Z,17.37
2022-08-12T23:54:07.418Z,17.33
2022-08-12T23:56:38.446Z,17.32
2022-08-12T23:59:16.512Z,17.36
